Time;durP1;ratioP1;P1;durP2;ratioP2;P2;SDS_P1;SDS_P2;PMS_P1;PMS_P2;Temp;Humidity;BMP_temperature;BMP_pressure;BME280_temperature;BME280_humidity;BME280_pressure;Samples;Min_cycle;Max_cycle;Signal;HPM_P1;HPM_P2
2021/08/18 00:00:22;;;;;;;;;;;13.70;92.00;;;;;;5052137;28;19928;-65
2021/08/18 00:02:48;;;;;;;;;;;13.60;92.00;;;;;;5052292;28;19931;-64
2021/08/18 00:05:14;;;;;;;;;;;13.60;92.10;;;;;;5051864;28;19921;-64
2021/08/18 00:07:40;;;;;;;;;;;13.60;92.10;;;;;;5050544;28;19917;-64
2021/08/18 00:10:08;;;;;;;;;;;13.50;92.10;;;;;;5052423;28;20400;-65
2021/08/18 00:12:33;;;;;;;;;;;13.50;92.10;;;;;;5051962;28;19999;-64
2021/08/18 00:14:59;;;;;;;;;;;13.40;92.10;;;;;;5052060;28;20404;-65
2021/08/18 00:17:24;;;;;;;;;;;13.40;92.30;;;;;;5051270;28;20376;-63
2021/08/18 00:19:50;;;;;;;;;;;13.40;92.30;;;;;;5052071;28;20332;-64
2021/08/18 00:22:18;;;;;;;;;;;13.40;92.40;;;;;;5050037;28;21334;-63
2021/08/18 00:24:43;;;;;;;;;;;13.40;92.40;;;;;;5051512;28;19951;-63
2021/08/18 00:27:09;;;;;;;;;;;13.30;92.40;;;;;;5051239;28;19921;-65
2021/08/18 00:29:34;;;;;;;;;;;13.30;92.40;;;;;;5051831;28;19963;-65
2021/08/18 00:32:00;;;;;;;;;;;13.30;92.50;;;;;;5051605;28;19917;-65
2021/08/18 00:34:26;;;;;;;;;;;13.30;92.60;;;;;;5051710;28;19917;-64
2021/08/18 00:36:51;;;;;;;;;;;13.30;92.60;;;;;;5051437;28;20008;-64
2021/08/18 00:39:17;;;;;;;;;;;13.30;92.60;;;;;;5051234;28;19947;-64
2021/08/18 00:41:45;;;;;;;;;;;13.30;92.70;;;;;;5051781;28;19943;-63
2021/08/18 00:44:11;;;;;;;;;;;13.30;92.80;;;;;;5051314;28;19932;-64
2021/08/18 00:46:46;;;;;;;;;;;13.30;92.80;;;;;;5051784;28;19917;-64
2021/08/18 00:49:11;;;;;;;;;;;13.30;92.80;;;;;;5051665;28;19940;-63
2021/08/18 00:51:37;;;;;;;;;;;13.30;92.80;;;;;;5051614;28;19917;-64
2021/08/18 00:54:02;;;;;;;;;;;13.30;92.90;;;;;;5049718;28;20335;-63
2021/08/18 00:56:30;;;;;;;;;;;13.30;93.00;;;;;;5051499;28;19917;-65
2021/08/18 00:58:56;;;;;;;;;;;13.30;93.10;;;;;;5051416;28;20296;-65
2021/08/18 01:01:21;;;;;;;;;;;13.30;93.10;;;;;;5051632;28;19923;-64
2021/08/18 01:03:47;;;;;;;;;;;13.30;93.10;;;;;;5051231;28;20225;-64
2021/08/18 01:06:13;;;;;;;;;;;13.40;93.30;;;;;;5051557;28;19917;-63
2021/08/18 01:08:38;;;;;;;;;;;13.40;93.30;;;;;;5051271;28;19916;-64
2021/08/18 01:11:04;;;;;;;;;;;13.50;93.40;;;;;;5051127;28;20808;-65
2021/08/18 01:13:30;;;;;;;;;;;13.50;93.40;;;;;;5051527;28;19920;-65
2021/08/18 01:15:56;;;;;;;;;;;13.60;93.50;;;;;;5051231;28;19917;-65
2021/08/18 01:18:21;;;;;;;;;;;13.60;93.50;;;;;;5050914;28;19920;-65
2021/08/18 01:20:47;;;;;;;;;;;13.70;93.60;;;;;;5050102;28;19921;-64
2021/08/18 01:23:13;;;;;;;;;;;13.70;93.50;;;;;;5050833;28;20364;-64
2021/08/18 01:25:40;;;;;;;;;;;13.80;93.50;;;;;;5051332;28;20289;-63
2021/08/18 01:28:07;;;;;;;;;;;13.80;93.50;;;;;;5050817;28;20088;-65
2021/08/18 01:30:33;;;;;;;;;;;13.90;93.50;;;;;;5051368;28;20031;-62
2021/08/18 01:33:02;;;;;;;;;;;13.90;93.40;;;;;;5051065;28;20381;-62
2021/08/18 01:35:31;;;;;;;;;;;14.00;93.40;;;;;;5050897;28;19920;-63
2021/08/18 01:37:57;;;;;;;;;;;14.00;93.40;;;;;;5050729;28;19955;-62
2021/08/18 01:40:24;;;;;;;;;;;14.00;93.30;;;;;;5051066;28;19924;-62
2021/08/18 01:42:50;;;;;;;;;;;14.00;93.20;;;;;;5050696;28;19940;-63
2021/08/18 01:45:22;;;;;;;;;;;13.90;93.20;;;;;;5051197;28;19952;-63
2021/08/18 01:47:49;;;;;;;;;;;13.90;93.30;;;;;;5032283;28;20270;-63
2021/08/18 01:50:15;;;;;;;;;;;13.90;93.30;;;;;;5049801;28;19924;-63
2021/08/18 01:52:41;;;;;;;;;;;13.90;93.40;;;;;;5051030;28;19921;-63
2021/08/18 01:55:07;;;;;;;;;;;13.90;93.40;;;;;;5050492;28;19998;-63
2021/08/18 01:57:33;;;;;;;;;;;13.90;93.40;;;;;;5050757;28;20369;-62
2021/08/18 01:59:58;;;;;;;;;;;14.00;93.40;;;;;;5050518;28;19952;-62
2021/08/18 02:02:28;;;;;;;;;;;14.00;93.40;;;;;;5050983;28;19917;-62
2021/08/18 02:04:54;;;;;;;;;;;14.00;93.30;;;;;;5050261;28;20362;-63
2021/08/18 02:07:20;;;;;;;;;;;14.00;93.30;;;;;;5053624;28;19952;-63
2021/08/18 02:09:45;;;;;;;;;;;14.00;93.40;;;;;;5054455;28;19917;-62
2021/08/18 02:12:11;;;;;;;;;;;14.00;93.40;;;;;;5054018;28;19924;-62
2021/08/18 02:14:37;;;;;;;;;;;14.00;93.40;;;;;;5054403;28;19966;-63
2021/08/18 02:17:03;;;;;;;;;;;14.10;93.40;;;;;;5053921;28;20408;-62
2021/08/18 02:19:28;;;;;;;;;;;14.10;93.30;;;;;;5053851;28;19920;-61
2021/08/18 02:21:54;;;;;;;;;;;14.10;93.10;;;;;;5054202;28;20304;-62
2021/08/18 02:24:20;;;;;;;;;;;14.00;93.00;;;;;;5054187;28;20385;-67
2021/08/18 02:26:45;;;;;;;;;;;13.90;93.00;;;;;;5053285;28;20055;-70
2021/08/18 02:29:11;;;;;;;;;;;13.80;93.00;;;;;;5052808;28;19975;-69
2021/08/18 02:31:36;;;;;;;;;;;13.70;93.00;;;;;;5054007;28;19963;-68
2021/08/18 02:34:02;;;;;;;;;;;13.70;93.00;;;;;;5053598;28;19924;-68
2021/08/18 02:36:28;;;;;;;;;;;13.60;93.10;;;;;;5054049;28;20280;-69
2021/08/18 02:38:54;;;;;;;;;;;13.60;93.20;;;;;;5053115;28;19925;-68
2021/08/18 02:41:19;;;;;;;;;;;13.60;93.10;;;;;;5053864;28;19924;-69
2021/08/18 02:43:45;;;;;;;;;;;13.50;93.10;;;;;;5053790;28;20293;-70
2021/08/18 02:46:11;;;;;;;;;;;13.40;93.10;;;;;;5053393;28;19951;-67
2021/08/18 02:48:36;;;;;;;;;;;13.40;93.20;;;;;;5053245;28;19967;-69
2021/08/18 02:51:02;;;;;;;;;;;13.30;93.30;;;;;;5053814;28;20107;-68
2021/08/18 02:53:28;;;;;;;;;;;13.30;93.30;;;;;;5053218;28;19999;-69
2021/08/18 02:55:53;;;;;;;;;;;13.30;93.40;;;;;;5053778;28;19917;-68
2021/08/18 02:58:19;;;;;;;;;;;13.20;93.40;;;;;;5053230;28;19924;-67
2021/08/18 03:00:45;;;;;;;;;;;13.20;93.40;;;;;;5053229;28;19921;-68
2021/08/18 03:03:10;;;;;;;;;;;13.20;93.50;;;;;;5053433;28;19916;-67
2021/08/18 03:05:36;;;;;;;;;;;13.10;93.50;;;;;;5053420;28;19923;-69
2021/08/18 03:08:02;;;;;;;;;;;13.10;93.50;;;;;;5052587;28;20050;-68
2021/08/18 03:10:28;;;;;;;;;;;13.10;93.80;;;;;;5053272;28;19916;-69
2021/08/18 03:12:53;;;;;;;;;;;13.10;93.60;;;;;;5052895;28;19928;-67
2021/08/18 03:15:19;;;;;;;;;;;13.10;93.60;;;;;;5053167;28;19917;-69
2021/08/18 03:17:44;;;;;;;;;;;13.10;93.60;;;;;;5050854;28;20011;-67
2021/08/18 03:20:10;;;;;;;;;;;13.00;93.70;;;;;;5052709;28;19921;-68
2021/08/18 03:22:36;;;;;;;;;;;13.00;93.70;;;;;;5053339;28;19928;-67
2021/08/18 03:25:03;;;;;;;;;;;13.00;93.80;;;;;;5053139;28;19917;-68
2021/08/18 03:27:28;;;;;;;;;;;13.00;93.90;;;;;;5052112;28;20032;-69
2021/08/18 03:29:54;;;;;;;;;;;13.00;93.90;;;;;;5052838;28;20015;-68
2021/08/18 03:32:20;;;;;;;;;;;13.00;93.80;;;;;;5051233;28;19916;-68
2021/08/18 03:34:45;;;;;;;;;;;13.00;93.90;;;;;;5052789;28;20297;-69
2021/08/18 03:37:11;;;;;;;;;;;12.90;93.90;;;;;;5052469;28;19917;-68
2021/08/18 03:39:36;;;;;;;;;;;12.90;93.90;;;;;;5052175;28;19925;-69
2021/08/18 03:42:02;;;;;;;;;;;12.90;94.00;;;;;;5052624;28;19923;-69
2021/08/18 03:44:28;;;;;;;;;;;12.90;93.90;;;;;;5050901;28;19924;-68
2021/08/18 03:46:54;;;;;;;;;;;12.90;94.10;;;;;;5052271;28;20416;-69
2021/08/18 03:49:19;;;;;;;;;;;12.90;94.10;;;;;;5052605;28;19923;-69
2021/08/18 03:51:46;;;;;;;;;;;12.90;94.10;;;;;;5052145;28;19921;-68
2021/08/18 03:54:11;;;;;;;;;;;12.80;94.00;;;;;;5052570;28;19917;-67
2021/08/18 03:56:37;;;;;;;;;;;12.80;94.10;;;;;;5052162;28;19917;-68
2021/08/18 03:59:02;;;;;;;;;;;12.80;94.30;;;;;;5051675;28;19921;-69
2021/08/18 04:01:28;;;;;;;;;;;12.80;94.30;;;;;;5052304;28;20377;-68
2021/08/18 04:03:54;;;;;;;;;;;12.90;94.30;;;;;;5052247;28;19971;-65
2021/08/18 04:06:19;;;;;;;;;;;12.90;94.40;;;;;;5051801;28;19967;-68
2021/08/18 04:08:45;;;;;;;;;;;12.90;94.40;;;;;;5051700;28;20301;-69
2021/08/18 04:11:11;;;;;;;;;;;12.90;94.40;;;;;;5050578;28;19982;-66
2021/08/18 04:13:37;;;;;;;;;;;13.00;94.40;;;;;;5052151;28;20324;-68
2021/08/18 04:16:03;;;;;;;;;;;13.00;94.60;;;;;;5052281;28;19923;-67
2021/08/18 04:18:28;;;;;;;;;;;13.00;94.60;;;;;;5050131;28;19940;-68
2021/08/18 04:20:54;;;;;;;;;;;13.10;94.60;;;;;;5051751;28;19921;-68
2021/08/18 04:23:19;;;;;;;;;;;13.10;94.60;;;;;;5050871;28;20373;-68
2021/08/18 04:25:45;;;;;;;;;;;13.10;94.60;;;;;;5047861;28;19932;-69
2021/08/18 04:28:11;;;;;;;;;;;13.20;94.60;;;;;;5025675;28;19921;-67
2021/08/18 04:30:36;;;;;;;;;;;13.20;94.70;;;;;;5024729;28;20305;-69
2021/08/18 04:33:02;;;;;;;;;;;13.30;94.80;;;;;;5030243;28;19921;-69
2021/08/18 04:35:28;;;;;;;;;;;13.40;94.80;;;;;;5031703;28;19917;-69
2021/08/18 04:37:53;;;;;;;;;;;13.50;94.80;;;;;;5031633;28;20389;-69
2021/08/18 04:40:21;;;;;;;;;;;13.60;94.70;;;;;;5031560;28;19927;-69
2021/08/18 04:42:47;;;;;;;;;;;13.70;94.80;;;;;;5031775;28;19986;-69
2021/08/18 04:45:13;;;;;;;;;;;13.80;94.80;;;;;;5031284;28;19917;-69
2021/08/18 04:47:39;;;;;;;;;;;13.80;94.70;;;;;;5031425;28;19917;-69
2021/08/18 04:50:06;;;;;;;;;;;13.90;94.70;;;;;;5040518;28;20012;-67
2021/08/18 04:52:31;;;;;;;;;;;13.90;94.70;;;;;;5040956;28;20369;-68
2021/08/18 04:54:57;;;;;;;;;;;14.00;94.60;;;;;;5032118;28;20198;-69
2021/08/18 04:57:22;;;;;;;;;;;14.00;94.50;;;;;;5030785;28;20289;-69
2021/08/18 04:59:48;;;;;;;;;;;14.00;94.50;;;;;;5030767;28;20378;-69
2021/08/18 05:02:13;;;;;;;;;;;14.00;94.50;;;;;;5031147;28;20072;-68
2021/08/18 05:04:39;;;;;;;;;;;14.10;94.50;;;;;;5030628;28;20271;-70
2021/08/18 05:07:04;;;;;;;;;;;14.10;94.40;;;;;;5030711;28;19917;-70
2021/08/18 05:09:30;;;;;;;;;;;14.10;94.40;;;;;;5031722;28;20304;-69
2021/08/18 05:11:56;;;;;;;;;;;14.10;94.40;;;;;;5030603;28;20561;-70
2021/08/18 05:14:22;;;;;;;;;;;14.10;94.40;;;;;;5029266;28;19917;-68
2021/08/18 05:16:48;;;;;;;;;;;14.10;94.40;;;;;;5015101;28;19925;-69
2021/08/18 05:19:14;;;;;;;;;;;14.20;94.50;;;;;;5031318;28;20293;-68
2021/08/18 05:21:39;;;;;;;;;;;14.20;94.30;;;;;;5051253;28;19970;-69
2021/08/18 05:24:05;;;;;;;;;;;14.20;94.30;;;;;;5050951;28;20274;-69
2021/08/18 05:26:30;;;;;;;;;;;14.20;94.30;;;;;;5051150;28;20032;-69
2021/08/18 05:28:56;;;;;;;;;;;14.20;94.30;;;;;;5051025;28;19921;-68
2021/08/18 05:31:21;;;;;;;;;;;14.30;94.30;;;;;;5049623;28;20321;-68
2021/08/18 05:33:47;;;;;;;;;;;14.30;94.20;;;;;;5033184;28;19917;-69
2021/08/18 05:36:13;;;;;;;;;;;14.30;94.20;;;;;;5030856;28;20589;-68
2021/08/18 05:38:38;;;;;;;;;;;14.40;94.10;;;;;;5030822;28;19943;-68
2021/08/18 05:41:04;;;;;;;;;;;14.40;94.10;;;;;;5032579;28;19929;-69
2021/08/18 05:43:29;;;;;;;;;;;14.40;94.00;;;;;;5034471;28;19924;-69
2021/08/18 05:45:55;;;;;;;;;;;14.50;94.10;;;;;;5038819;28;19917;-69
2021/08/18 05:48:20;;;;;;;;;;;14.50;94.10;;;;;;5054468;28;20262;-66
2021/08/18 05:50:46;;;;;;;;;;;14.50;94.10;;;;;;5051261;28;19917;-69
2021/08/18 05:53:18;;;;;;;;;;;14.70;94.10;;;;;;5034970;28;19918;-67
2021/08/18 05:55:52;;;;;;;;;;;14.70;93.90;;;;;;5038028;28;20377;-66
2021/08/18 05:58:18;;;;;;;;;;;14.70;93.90;;;;;;5053247;28;19923;-69
2021/08/18 06:00:44;;;;;;;;;;;14.80;93.90;;;;;;5049268;28;19925;-67
2021/08/18 06:03:10;;;;;;;;;;;15.00;94.10;;;;;;5034349;28;19924;-70
2021/08/18 06:05:38;;;;;;;;;;;15.10;93.80;;;;;;5034780;28;20055;-69
2021/08/18 06:08:04;;;;;;;;;;;15.20;93.80;;;;;;5033962;28;19935;-69
2021/08/18 06:10:30;;;;;;;;;;;15.30;93.70;;;;;;5034840;28;20000;-67
2021/08/18 06:12:56;;;;;;;;;;;15.30;93.50;;;;;;5034675;28;19971;-67
2021/08/18 06:15:21;;;;;;;;;;;15.30;93.40;;;;;;5033022;28;19948;-67
2021/08/18 06:17:47;;;;;;;;;;;15.40;93.10;;;;;;5032992;28;20000;-68
2021/08/18 06:20:13;;;;;;;;;;;15.40;93.20;;;;;;5034213;28;20412;-69
2021/08/18 06:22:39;;;;;;;;;;;15.30;93.10;;;;;;5032771;28;19923;-70
2021/08/18 06:25:05;;;;;;;;;;;15.40;93.20;;;;;;5033237;28;20011;-67
2021/08/18 06:27:30;;;;;;;;;;;15.50;93.20;;;;;;5015721;28;19975;-68
2021/08/18 06:29:56;;;;;;;;;;;15.50;92.90;;;;;;5034363;28;19919;-68
2021/08/18 06:32:22;;;;;;;;;;;15.50;92.60;;;;;;5036975;28;20346;-69
2021/08/18 06:34:48;;;;;;;;;;;15.40;92.60;;;;;;5033539;28;19917;-67
2021/08/18 06:37:14;;;;;;;;;;;15.30;92.50;;;;;;5036428;28;20378;-69
2021/08/18 06:39:40;;;;;;;;;;;15.30;92.60;;;;;;5034054;28;19964;-70
2021/08/18 06:42:06;;;;;;;;;;;15.30;92.60;;;;;;5046888;28;20376;-69
2021/08/18 06:44:31;;;;;;;;;;;15.40;92.70;;;;;;5053855;28;19924;-69
2021/08/18 06:46:57;;;;;;;;;;;15.30;92.50;;;;;;5052996;28;19917;-69
2021/08/18 06:49:22;;;;;;;;;;;15.30;92.50;;;;;;5055534;28;19917;-70
2021/08/18 06:51:48;;;;;;;;;;;15.40;92.60;;;;;;5054688;28;19924;-70
2021/08/18 06:54:13;;;;;;;;;;;15.50;92.70;;;;;;5056011;28;19921;-69
2021/08/18 06:56:39;;;;;;;;;;;15.60;92.80;;;;;;5055766;28;19949;-71
2021/08/18 06:59:04;;;;;;;;;;;15.80;93.10;;;;;;5054096;28;19924;-69
2021/08/18 07:01:30;;;;;;;;;;;16.10;92.90;;;;;;5053585;28;19921;-68
2021/08/18 07:03:55;;;;;;;;;;;16.30;92.80;;;;;;5054076;28;19924;-70
2021/08/18 07:06:21;;;;;;;;;;;16.80;93.40;;;;;;5054335;28;20004;-68
2021/08/18 07:08:46;;;;;;;;;;;17.00;92.30;;;;;;5052833;28;19925;-69
2021/08/18 07:11:12;;;;;;;;;;;17.00;91.90;;;;;;5053669;28;19970;-69
2021/08/18 07:13:38;;;;;;;;;;;17.00;91.30;;;;;;5054542;28;19980;-69
2021/08/18 07:16:05;;;;;;;;;;;16.80;91.10;;;;;;5043877;28;19921;-70
2021/08/18 07:18:30;;;;;;;;;;;16.60;90.90;;;;;;5045145;28;19956;-69
2021/08/18 07:20:56;;;;;;;;;;;16.40;90.80;;;;;;5046251;28;19962;-66
2021/08/18 07:23:22;;;;;;;;;;;16.10;90.80;;;;;;5044778;28;20449;-69
2021/08/18 07:25:48;;;;;;;;;;;16.00;91.10;;;;;;5044678;28;19947;-68
2021/08/18 07:28:14;;;;;;;;;;;15.90;91.30;;;;;;5041960;28;20009;-66
2021/08/18 07:30:39;;;;;;;;;;;15.80;91.40;;;;;;5047835;28;19956;-64
2021/08/18 07:33:05;;;;;;;;;;;15.80;91.40;;;;;;5043264;28;20387;-64
2021/08/18 07:35:31;;;;;;;;;;;15.70;91.50;;;;;;5044484;28;19917;-63
2021/08/18 07:37:57;;;;;;;;;;;15.60;91.60;;;;;;5040064;28;20386;-64
2021/08/18 07:40:23;;;;;;;;;;;15.60;91.70;;;;;;5043005;28;20305;-62
2021/08/18 07:42:48;;;;;;;;;;;15.60;91.80;;;;;;5042186;28;20003;-64
2021/08/18 07:45:14;;;;;;;;;;;15.60;92.10;;;;;;5041959;28;20385;-64
2021/08/18 07:47:40;;;;;;;;;;;15.60;92.00;;;;;;5042684;28;19948;-69
2021/08/18 07:50:06;;;;;;;;;;;15.60;91.90;;;;;;5042188;28;19917;-62
2021/08/18 07:52:32;;;;;;;;;;;15.60;91.90;;;;;;5041883;28;20270;-64
2021/08/18 07:54:58;;;;;;;;;;;15.60;91.90;;;;;;5042939;28;19924;-63
2021/08/18 07:57:23;;;;;;;;;;;15.60;91.90;;;;;;5039889;28;19971;-63
2021/08/18 07:59:51;;;;;;;;;;;15.70;92.30;;;;;;5041558;28;19917;-64
2021/08/18 08:02:20;;;;;;;;;;;15.80;92.40;;;;;;5043137;28;19979;-63
2021/08/18 08:04:46;;;;;;;;;;;15.90;92.40;;;;;;5041676;28;19984;-62
2021/08/18 08:07:12;;;;;;;;;;;16.10;92.60;;;;;;5040641;28;19923;-64
2021/08/18 08:09:38;;;;;;;;;;;16.30;92.60;;;;;;5042843;28;19916;-64
2021/08/18 08:12:03;;;;;;;;;;;16.50;92.70;;;;;;5041039;28;19921;-62
2021/08/18 08:14:29;;;;;;;;;;;16.90;93.00;;;;;;5045711;28;19923;-65
2021/08/18 08:16:54;;;;;;;;;;;17.40;93.10;;;;;;5045423;28;20393;-62
2021/08/18 08:19:20;;;;;;;;;;;18.00;93.20;;;;;;5041383;28;20379;-63
2021/08/18 08:21:46;;;;;;;;;;;18.60;92.30;;;;;;5041244;28;19986;-62
2021/08/18 08:24:12;;;;;;;;;;;19.60;92.90;;;;;;5041054;28;20373;-64
2021/08/18 08:26:37;;;;;;;;;;;19.90;90.70;;;;;;5040464;28;19923;-62
2021/08/18 08:29:03;;;;;;;;;;;19.70;88.30;;;;;;5040640;28;20369;-63
2021/08/18 08:31:28;;;;;;;;;;;19.50;87.70;;;;;;5041184;28;19940;-62
2021/08/18 08:33:54;;;;;;;;;;;19.20;87.00;;;;;;5041911;28;19920;-63
2021/08/18 08:36:19;;;;;;;;;;;18.90;86.60;;;;;;5040464;28;20011;-64
2021/08/18 08:38:45;;;;;;;;;;;18.70;86.80;;;;;;5041113;28;19953;-64
2021/08/18 08:41:11;;;;;;;;;;;18.50;86.50;;;;;;5042311;28;19921;-62
2021/08/18 08:43:40;;;;;;;;;;;18.10;86.20;;;;;;5040770;28;19991;-64
2021/08/18 08:46:06;;;;;;;;;;;18.00;86.60;;;;;;5041510;28;19952;-63
2021/08/18 08:48:32;;;;;;;;;;;17.80;86.90;;;;;;5040111;28;19917;-64
2021/08/18 08:50:58;;;;;;;;;;;17.80;87.20;;;;;;5042402;28;19984;-64
2021/08/18 08:53:24;;;;;;;;;;;17.70;86.80;;;;;;5040748;28;20004;-64
2021/08/18 08:55:49;;;;;;;;;;;17.60;86.60;;;;;;5038599;28;19921;-63
2021/08/18 08:58:15;;;;;;;;;;;17.50;86.90;;;;;;5030790;28;20455;-63
2021/08/18 09:00:41;;;;;;;;;;;17.50;86.90;;;;;;5031747;28;19948;-68
2021/08/18 09:03:11;;;;;;;;;;;17.50;87.20;;;;;;5040648;28;20543;-62
2021/08/18 09:05:37;;;;;;;;;;;17.40;87.20;;;;;;5045289;28;20285;-64
2021/08/18 09:08:03;;;;;;;;;;;17.50;87.30;;;;;;5033051;28;19917;-64
2021/08/18 09:10:31;;;;;;;;;;;17.40;87.60;;;;;;5031690;28;20244;-63
2021/08/18 09:13:22;;;;;;;;;;;17.50;87.40;;;;;;5051024;28;19923;-64
2021/08/18 09:16:02;;;;;;;;;;;17.70;87.70;;;;;;5053828;28;19920;-63
2021/08/18 09:18:38;;;;;;;;;;;17.90;88.10;;;;;;5054757;28;19924;-62
2021/08/18 09:21:22;;;;;;;;;;;18.10;88.20;;;;;;5055544;28;19991;-64
2021/08/18 09:23:47;;;;;;;;;;;18.10;86.00;;;;;;5035389;28;20439;-63
2021/08/18 09:26:20;;;;;;;;;;;17.90;85.80;;;;;;5036633;28;19925;-63
2021/08/18 09:28:46;;;;;;;;;;;17.80;85.70;;;;;;5038513;28;19928;-63
2021/08/18 09:31:22;;;;;;;;;;;17.60;86.00;;;;;;5046133;28;19917;-63
2021/08/18 09:33:53;;;;;;;;;;;17.50;86.00;;;;;;5043641;28;20427;-63
2021/08/18 09:36:27;;;;;;;;;;;17.50;86.60;;;;;;5042326;28;19921;-64
2021/08/18 09:39:11;;;;;;;;;;;17.70;87.20;;;;;;5042908;28;19921;-64
2021/08/18 09:41:36;;;;;;;;;;;18.10;88.10;;;;;;5040864;28;20255;-62
2021/08/18 09:44:06;;;;;;;;;;;19.00;89.60;;;;;;5040316;28;19928;-63
2021/08/18 09:46:35;;;;;;;;;;;19.50;86.00;;;;;;5043608;28;19917;-64
2021/08/18 09:49:07;;;;;;;;;;;19.50;84.00;;;;;;5043951;28;19917;-63
2021/08/18 09:51:32;;;;;;;;;;;19.30;82.30;;;;;;5042490;28;19917;-62
2021/08/18 09:54:10;;;;;;;;;;;19.10;82.30;;;;;;5044530;28;19986;-64
2021/08/18 09:56:42;;;;;;;;;;;19.00;82.50;;;;;;5044907;28;19969;-62
2021/08/18 09:59:08;;;;;;;;;;;18.70;81.70;;;;;;5057238;28;19959;-62
2021/08/18 10:01:34;;;;;;;;;;;18.60;82.40;;;;;;5062749;28;19917;-66
2021/08/18 10:03:59;;;;;;;;;;;18.60;82.90;;;;;;5053889;28;20290;-62
2021/08/18 10:06:26;;;;;;;;;;;18.60;82.50;;;;;;5063500;28;19924;-63
2021/08/18 10:08:54;;;;;;;;;;;18.50;82.50;;;;;;5065684;28;19921;-62
2021/08/18 10:11:21;;;;;;;;;;;18.50;82.50;;;;;;5064919;28;19917;-63
2021/08/18 10:13:47;;;;;;;;;;;18.40;82.00;;;;;;5063571;28;19964;-63
2021/08/18 10:16:15;;;;;;;;;;;18.40;83.10;;;;;;5064372;28;19947;-61
2021/08/18 10:18:42;;;;;;;;;;;18.80;84.40;;;;;;5060615;28;19916;-62
2021/08/18 10:21:09;;;;;;;;;;;18.90;82.10;;;;;;5059287;28;19985;-62
2021/08/18 10:23:42;;;;;;;;;;;18.90;81.60;;;;;;5061609;28;20293;-62
2021/08/18 10:26:07;;;;;;;;;;;18.90;81.90;;;;;;5061733;28;19924;-62
2021/08/18 10:28:52;;;;;;;;;;;19.00;81.80;;;;;;5050742;28;20384;-62
2021/08/18 10:31:37;;;;;;;;;;;19.00;81.50;;;;;;5073408;28;19923;-61
2021/08/18 10:34:03;;;;;;;;;;;19.20;81.80;;;;;;5073100;28;19920;-62
2021/08/18 10:36:41;;;;;;;;;;;19.40;81.70;;;;;;5074009;28;19919;-62
2021/08/18 10:39:18;;;;;;;;;;;19.90;82.50;;;;;;5070719;28;19982;-62
2021/08/18 10:42:04;;;;;;;;;;;20.30;80.60;;;;;;5036927;28;20373;-61
2021/08/18 10:44:38;;;;;;;;;;;20.20;78.90;;;;;;5040951;28;19918;-62
2021/08/18 10:47:16;;;;;;;;;;;20.10;78.00;;;;;;5036143;28;19917;-60
2021/08/18 10:49:42;;;;;;;;;;;20.00;78.30;;;;;;5043539;28;19917;-62
2021/08/18 10:52:08;;;;;;;;;;;19.80;77.80;;;;;;5053517;28;19913;-61
2021/08/18 10:54:34;;;;;;;;;;;19.80;78.60;;;;;;5051827;28;19928;-61
2021/08/18 10:57:00;;;;;;;;;;;19.90;79.40;;;;;;5044007;28;19917;-61
2021/08/18 10:59:34;;;;;;;;;;;20.00;78.50;;;;;;5042659;28;19975;-62
2021/08/18 11:02:00;;;;;;;;;;;19.90;77.70;;;;;;5048181;28;19924;-62
2021/08/18 11:04:43;;;;;;;;;;;19.70;77.30;;;;;;5036664;28;19917;-62
2021/08/18 11:07:09;;;;;;;;;;;19.50;77.10;;;;;;5044119;28;20004;-62
2021/08/18 11:09:50;;;;;;;;;;;19.20;77.60;;;;;;5036020;28;20011;-61
2021/08/18 11:12:34;;;;;;;;;;;19.00;77.90;;;;;;5050286;28;20404;-62
2021/08/18 11:15:00;;;;;;;;;;;18.90;78.70;;;;;;5051374;28;19940;-62
2021/08/18 11:17:25;;;;;;;;;;;19.10;80.40;;;;;;5044375;28;19960;-61
2021/08/18 11:19:53;;;;;;;;;;;19.40;80.30;;;;;;5039092;28;19921;-61
2021/08/18 11:22:19;;;;;;;;;;;19.50;79.30;;;;;;5049403;28;20000;-62
2021/08/18 11:24:44;;;;;;;;;;;19.40;78.50;;;;;;5019658;28;20012;-62
2021/08/18 11:27:10;;;;;;;;;;;19.10;78.40;;;;;;5045294;28;19917;-62
2021/08/18 11:29:36;;;;;;;;;;;18.90;78.70;;;;;;5034853;28;20082;-63
2021/08/18 11:32:01;;;;;;;;;;;18.70;78.50;;;;;;5046740;28;19917;-62
2021/08/18 11:34:31;;;;;;;;;;;18.50;78.90;;;;;;5036091;28;19941;-61
2021/08/18 11:36:58;;;;;;;;;;;18.30;79.30;;;;;;5043242;28;19976;-62
2021/08/18 11:39:24;;;;;;;;;;;17.90;79.70;;;;;;5030674;28;19925;-61
2021/08/18 11:41:50;;;;;;;;;;;17.80;80.70;;;;;;5045064;28;19924;-63
2021/08/18 11:44:24;;;;;;;;;;;17.80;81.90;;;;;;5034938;28;20366;-62
2021/08/18 11:46:50;;;;;;;;;;;18.00;83.50;;;;;;5020775;28;19967;-62
2021/08/18 11:49:15;;;;;;;;;;;18.40;84.50;;;;;;5043965;28;19913;-62
2021/08/18 11:51:46;;;;;;;;;;;18.70;83.60;;;;;;5043458;28;19917;-62
2021/08/18 11:54:11;;;;;;;;;;;18.90;83.10;;;;;;5047851;28;19917;-63
2021/08/18 11:56:37;;;;;;;;;;;18.90;82.50;;;;;;5051118;28;20352;-68
2021/08/18 11:59:03;;;;;;;;;;;18.80;82.30;;;;;;5051913;28;19920;-69
2021/08/18 12:01:29;;;;;;;;;;;18.70;82.30;;;;;;5051846;28;19921;-63
2021/08/18 12:03:55;;;;;;;;;;;18.60;83.10;;;;;;5052193;28;19917;-63
2021/08/18 12:06:27;;;;;;;;;;;18.70;83.80;;;;;;5052213;28;20008;-63
2021/08/18 12:08:53;;;;;;;;;;;19.00;84.20;;;;;;5071302;28;19924;-63
2021/08/18 12:11:29;;;;;;;;;;;19.50;85.50;;;;;;5071988;28;19917;-62
2021/08/18 12:13:54;;;;;;;;;;;19.80;84.50;;;;;;5071703;28;19927;-62
2021/08/18 12:16:27;;;;;;;;;;;20.10;83.40;;;;;;5072096;28;20357;-63
2021/08/18 12:18:54;;;;;;;;;;;20.10;82.50;;;;;;5070997;28;19920;-64
2021/08/18 12:21:27;;;;;;;;;;;20.10;81.20;;;;;;5071895;28;19923;-62
2021/08/18 12:23:54;;;;;;;;;;;19.90;80.20;;;;;;5053980;28;19917;-62
2021/08/18 12:26:33;;;;;;;;;;;19.60;80.20;;;;;;5071227;28;20384;-62
2021/08/18 12:29:00;;;;;;;;;;;19.30;80.50;;;;;;5071366;28;19958;-65
2021/08/18 12:31:26;;;;;;;;;;;19.10;80.40;;;;;;5071422;28;19917;-63
2021/08/18 12:34:08;;;;;;;;;;;19.00;81.30;;;;;;5071663;28;19917;-62
2021/08/18 12:36:33;;;;;;;;;;;19.10;81.90;;;;;;5071121;28;19916;-67
2021/08/18 12:39:00;;;;;;;;;;;19.30;82.70;;;;;;5071151;28;19924;-70
2021/08/18 12:41:26;;;;;;;;;;;20.00;82.80;;;;;;5070261;28;19942;-68
2021/08/18 12:44:09;;;;;;;;;;;20.50;81.70;;;;;;5071144;28;19917;-69
2021/08/18 12:46:35;;;;;;;;;;;21.10;80.30;;;;;;5071096;28;19920;-68
2021/08/18 12:49:19;;;;;;;;;;;21.30;78.40;;;;;;5070975;28;20023;-69
2021/08/18 12:51:45;;;;;;;;;;;21.20;76.90;;;;;;5070872;28;20003;-68
2021/08/18 12:54:10;;;;;;;;;;;21.10;77.00;;;;;;5071417;28;20007;-70
2021/08/18 12:56:36;;;;;;;;;;;20.80;76.30;;;;;;5071315;28;19913;-68
2021/08/18 12:59:01;;;;;;;;;;;20.60;76.30;;;;;;5070757;28;19954;-69
2021/08/18 13:01:27;;;;;;;;;;;20.30;76.40;;;;;;5071285;28;19917;-69
2021/08/18 13:03:53;;;;;;;;;;;20.00;76.20;;;;;;5071424;28;20143;-71
2021/08/18 13:06:18;;;;;;;;;;;19.80;76.60;;;;;;5070898;28;19916;-70
2021/08/18 13:08:44;;;;;;;;;;;19.60;77.00;;;;;;5070887;28;19923;-70
2021/08/18 13:11:10;;;;;;;;;;;19.50;77.60;;;;;;5071161;28;19952;-70
2021/08/18 13:13:35;;;;;;;;;;;19.50;78.00;;;;;;5070776;28;20210;-70
2021/08/18 13:16:01;;;;;;;;;;;19.50;77.80;;;;;;5071229;28;19923;-70
2021/08/18 13:18:26;;;;;;;;;;;19.40;77.50;;;;;;5070136;28;19927;-69
2021/08/18 13:20:52;;;;;;;;;;;19.20;77.50;;;;;;5071168;28;19967;-68
2021/08/18 13:23:17;;;;;;;;;;;19.00;77.80;;;;;;5071044;28;20338;-67
2021/08/18 13:25:43;;;;;;;;;;;18.90;78.30;;;;;;5052772;28;19923;-69
2021/08/18 13:28:08;;;;;;;;;;;18.70;78.50;;;;;;5052690;28;19921;-69
2021/08/18 13:30:34;;;;;;;;;;;18.60;78.90;;;;;;5083913;22;19916;-61
2021/08/18 13:32:59;;;;;;;;;;;18.50;79.50;;;;;;5050196;28;19923;-60
2021/08/18 13:35:29;;;;;;;;;;;18.40;79.80;;;;;;5050955;28;20011;-60
2021/08/18 13:37:54;;;;;;;;;;;18.40;80.10;;;;;;5050064;28;19917;-60
2021/08/18 13:40:20;;;;;;;;;;;18.20;80.50;;;;;;5050599;28;20032;-61
2021/08/18 13:42:47;;;;;;;;;;;18.30;81.30;;;;;;5050746;28;19917;-60
2021/08/18 13:45:13;;;;;;;;;;;18.60;82.80;;;;;;5050257;28;19913;-61
2021/08/18 13:47:38;;;;;;;;;;;19.10;82.90;;;;;;5050538;28;20296;-61
2021/08/18 13:50:04;;;;;;;;;;;19.50;82.70;;;;;;5049963;28;20296;-61
2021/08/18 13:52:30;;;;;;;;;;;19.90;82.80;;;;;;5050609;28;20003;-61
2021/08/18 13:54:55;;;;;;;;;;;20.30;82.20;;;;;;5050855;28;19956;-60
2021/08/18 13:57:21;;;;;;;;;;;20.60;81.10;;;;;;5050053;28;20325;-61
2021/08/18 13:59:46;;;;;;;;;;;20.80;80.90;;;;;;5032637;28;20412;-60
2021/08/18 14:02:12;;;;;;;;;;;21.00;80.90;;;;;;5035278;28;19921;-60
2021/08/18 14:04:37;;;;;;;;;;;21.10;79.80;;;;;;5053861;28;19913;-61
2021/08/18 14:07:03;;;;;;;;;;;21.10;79.40;;;;;;5054173;28;20380;-63
2021/08/18 14:09:29;;;;;;;;;;;21.20;79.80;;;;;;5054215;28;19926;-61
2021/08/18 14:11:54;;;;;;;;;;;21.40;79.40;;;;;;5035992;28;19970;-61
2021/08/18 14:14:20;;;;;;;;;;;21.50;78.20;;;;;;5054116;28;19972;-60